Ballinger, TX (76821)

1:05 PM CDT on March 24, 2017 (GMT -0500)
West of Lake Winters | | Change Station
Active Advisory: Fire Weather Warning

Elev 1834 ft 31.96 °N, 99.88 °W | Updated 7 seconds ago

Clear
Clear
72.5 °F
Feels Like 75 °F
N
10.7
Wind Variable Wind from West
Gusts 12.3 mph

Today
High -- | Low -- °F
--% Chance of Precip.
Yesterday
High -- | Low -- °F
Precip. -- in
Pressure 29.90 in
Visibility 10.0 miles
Clouds Clear
Heat Index 75 °F
Dew Point 27 °F
Humidity 18%
Rainfall 0.00 in
Snow Depth Not available.
7:38 AM 7:54 PM
Waning Crescent, 14% visible
METAR KCOM 241755Z AUTO 23020G26KT 10SM CLR 24/M01 A2990 RMK AO2 T02351008 10235 20152
Pressure 29.90 in
Visibility 10.0 miles
Clouds Clear
Heat Index 75 °F
Dew Point 27 °F
Humidity 18%
Rainfall 0.00 in
Snow Depth Not available.
7:38 AM 7:54 PM
Waning Crescent, 14% visible
METAR KCOM 241755Z AUTO 23020G26KT 10SM CLR 24/M01 A2990 RMK AO2 T02351008 10235 20152

Get Your Daily Forecast Email!

Thanks for signing up!

Be on the lookout for a verification email in your inbox.

You'll start receiving severe weather alerts in your inbox..

×

10-Day Weather Forecast

Almanac

Astronomy

Mar. 24, 2017 Rise Set
Actual Time
Civil Twilight
Nautical Twilight
Astronomical Twilight
Moon
Length of Visible Light
Length of Day
Tomorrow will be .
, % of the Moon is Illuminated

Today's Extremes

State Highs State Lows

Community

WunderPhotos

Upload Photos

1,962,540 photos uploaded!

WunderBlog® & News

Nearby

Air Quality

  Air Quality AQ Index Pollutant
Not available.

Snow Depth

Station Depth Elevation

Earthquake Activity

City Distance Mag. Time & Date
Minimum magnitude displayed is 2.5.

Earthquake Activity

City Distance Mag. Time & Date
Minimum magnitude displayed is 2.5.

Coastal Water Temperatures

Place Temperature

Stations

Nearby Weather Stations

Station Location Temp. Windchill Dew Point Humidity Wind Precip. Elev Updated Type
                   

Watches & Warnings

Fire Weather Warning
Issued: 7:01 AM CDT Mar. 24, 2017 – National Weather Service

... Red flag warning remains in effect from 11 am this morning to
7 PM CDT this evening for dry and windy conditions... and high
fire danger...

* wind... sustained west to southwest winds at 20 to 30 mph with
gusts to 40 mph

* humidity... 15 to 20 percent

* fuels... dry

* impacts... any fires that develop will spread rapidly. Outdoor
burning is highly discouraged.

Precautionary/preparedness actions...

A red flag warning means that critical fire weather conditions
are either occurring now... .or will shortly. A combination of
strong winds... low relative humidity... and warm temperatures can
contribute to extreme fire behavior.